Time;durP1;ratioP1;P1;durP2;ratioP2;P2;SDS_P1;SDS_P2;PMS_P1;PMS_P2;Temp;Humidity;BMP_temperature;BMP_pressure;BME280_temperature;BME280_humidity;BME280_pressure;Samples;Min_cycle;Max_cycle;Signal;HPM_P1;HPM_P2
2023/10/03 00:01:18;;;;;;;463.40;239.83;;;;;;;;;;4991664;28;20270;-68
2023/10/03 00:03:44;;;;;;;481.27;259.17;;;;;;;;;;4988122;28;20190;-68
2023/10/03 00:06:11;;;;;;;467.47;245.23;;;;;;;;;;4989524;28;20242;-68
2023/10/03 00:08:57;;;;;;;507.87;270.10;;;;;;;;;;4992293;28;20236;-68
2023/10/03 00:33:02;;;;;;;461.87;235.63;;;;;;;;;;4994880;28;20756;-67
2023/10/03 00:36:07;;;;;;;462.73;231.83;;;;;;;;;;4987796;28;20220;-68
2023/10/03 00:45:11;;;;;;;445.47;223.27;;;;;;;;;;4981423;28;20220;-67
2023/10/03 01:54:27;;;;;;;469.93;229.23;;;;;;;;;;4960626;28;20243;-68
2023/10/03 01:56:54;;;;;;;475.13;237.53;;;;;;;;;;4975854;28;20752;-68
2023/10/03 01:59:20;;;;;;;478.83;235.80;;;;;;;;;;4991883;28;20213;-68
2023/10/03 02:01:46;;;;;;;482.73;239.07;;;;;;;;;;4995141;28;20224;-69
2023/10/03 02:04:12;;;;;;;462.13;223.33;;;;;;;;;;5009273;28;20228;-67
2023/10/03 02:06:39;;;;;;;469.10;225.90;;;;;;;;;;4997475;28;20796;-68
2023/10/03 02:09:08;;;;;;;467.67;231.07;;;;;;;;;;4990197;28;20279;-68
2023/10/03 02:11:34;;;;;;;443.40;217.73;;;;;;;;;;4992048;28;20217;-68
2023/10/03 02:14:03;;;;;;;457.33;228.80;;;;;;;;;;4991393;28;20295;-68
2023/10/03 02:16:29;;;;;;;448.47;214.43;;;;;;;;;;4996999;28;20812;-68
2023/10/03 02:18:55;;;;;;;485.03;249.40;;;;;;;;;;4996215;28;20181;-68
2023/10/03 02:21:21;;;;;;;453.03;220.17;;;;;;;;;;4994991;28;20177;-68
2023/10/03 02:23:48;;;;;;;448.47;220.37;;;;;;;;;;4988654;28;20283;-68
2023/10/03 02:26:16;;;;;;;472.57;232.80;;;;;;;;;;4993596;28;20729;-68
2023/10/03 02:28:42;;;;;;;448.23;217.37;;;;;;;;;;4994057;28;20224;-68
2023/10/03 02:31:08;;;;;;;485.33;243.27;;;;;;;;;;4992343;28;20659;-67
2023/10/03 02:33:35;;;;;;;433.75;210.20;;;;;;;;;;4994838;28;20188;-68
2023/10/03 02:36:01;;;;;;;454.10;228.03;;;;;;;;;;4994583;28;20209;-68
2023/10/03 02:38:30;;;;;;;454.03;220.47;;;;;;;;;;4990685;28;20219;-68
2023/10/03 02:40:59;;;;;;;436.40;212.73;;;;;;;;;;4991869;28;20224;-68
2023/10/03 02:43:31;;;;;;;444.57;214.73;;;;;;;;;;4990054;28;20232;-68
2023/10/03 02:45:57;;;;;;;450.07;218.73;;;;;;;;;;4991856;28;20189;-68
2023/10/03 02:48:23;;;;;;;466.07;233.43;;;;;;;;;;4993418;28;20220;-67
2023/10/03 02:50:50;;;;;;;451.53;221.77;;;;;;;;;;4992013;28;20212;-68
2023/10/03 02:53:20;;;;;;;439.73;212.27;;;;;;;;;;4988989;28;20248;-68
2023/10/03 02:55:46;;;;;;;437.80;210.67;;;;;;;;;;4994234;28;20307;-68
2023/10/03 02:58:14;;;;;;;454.07;215.67;;;;;;;;;;4993807;28;20215;-68
2023/10/03 03:00:41;;;;;;;441.87;213.13;;;;;;;;;;4995224;28;20646;-68
2023/10/03 03:03:11;;;;;;;476.30;227.67;;;;;;;;;;4991067;28;20297;-68
2023/10/03 03:05:38;;;;;;;484.87;238.83;;;;;;;;;;4992338;28;20304;-68
2023/10/03 03:08:21;;;;;;;461.53;223.93;;;;;;;;;;5005975;28;20240;-68
2023/10/03 03:10:55;;;;;;;440.50;211.93;;;;;;;;;;4994764;28;20212;-68
2023/10/03 03:13:22;;;;;;;448.33;217.40;;;;;;;;;;4992356;28;20304;-68
2023/10/03 03:15:59;;;;;;;431.50;208.23;;;;;;;;;;4993441;28;20339;-68
2023/10/03 03:18:26;;;;;;;443.17;210.23;;;;;;;;;;5009516;28;20240;-68
2023/10/03 03:20:58;;;;;;;444.80;211.50;;;;;;;;;;4994043;28;20221;-68
2023/10/03 03:23:35;;;;;;;447.07;207.43;;;;;;;;;;4985852;28;20209;-68
2023/10/03 03:28:56;;;;;;;498.40;245.23;;;;;;;;;;4990988;28;20263;-68
2023/10/03 03:31:22;;;;;;;481.90;229.63;;;;;;;;;;4991485;28;20690;-68
2023/10/03 03:33:52;;;;;;;437.63;204.93;;;;;;;;;;4994605;28;20221;-68
2023/10/03 03:36:41;;;;;;;449.33;210.27;;;;;;;;;;4993463;28;20253;-68
2023/10/03 03:39:53;;;;;;;488.17;233.00;;;;;;;;;;4991766;28;20348;-68
2023/10/03 03:42:38;;;;;;;444.13;201.83;;;;;;;;;;4992293;28;20528;-68
2023/10/03 03:45:04;;;;;;;465.43;215.53;;;;;;;;;;5006783;28;20237;-68
2023/10/03 03:47:33;;;;;;;450.57;208.93;;;;;;;;;;4988593;28;20221;-68
2023/10/03 03:50:01;;;;;;;455.67;206.23;;;;;;;;;;4994504;28;20217;-68
2023/10/03 03:52:32;;;;;;;543.07;275.00;;;;;;;;;;4991489;28;20221;-68
2023/10/03 03:55:03;;;;;;;457.50;212.30;;;;;;;;;;4991665;28;20328;-68
2023/10/03 03:57:29;;;;;;;459.83;210.60;;;;;;;;;;4993456;28;20205;-68
2023/10/03 03:59:56;;;;;;;455.53;213.23;;;;;;;;;;4994224;28;20219;-68
2023/10/03 04:02:23;;;;;;;487.13;233.33;;;;;;;;;;4988732;28;20232;-67
2023/10/03 04:04:49;;;;;;;448.37;207.27;;;;;;;;;;4995568;28;20572;-68
2023/10/03 04:07:16;;;;;;;494.93;238.93;;;;;;;;;;4989052;28;20312;-68
2023/10/03 04:09:42;;;;;;;426.10;198.70;;;;;;;;;;4994048;28;20181;-66
2023/10/03 04:12:40;;;;;;;450.57;215.17;;;;;;;;;;4995030;28;20311;-68
2023/10/03 04:15:11;;;;;;;469.03;220.90;;;;;;;;;;4987758;28;20288;-67
2023/10/03 04:17:37;;;;;;;469.83;223.03;;;;;;;;;;4991665;28;20316;-67
2023/10/03 04:22:48;;;;;;;456.77;211.13;;;;;;;;;;4993607;28;20244;-67
2023/10/03 04:25:14;;;;;;;451.60;210.50;;;;;;;;;;4989627;28;20214;-67
2023/10/03 04:27:40;;;;;;;486.50;236.60;;;;;;;;;;4991580;28;20208;-68
2023/10/03 04:30:13;;;;;;;516.80;233.53;;;;;;;;;;4976206;23;20860;-54
2023/10/03 04:32:43;;;;;;;508.57;224.43;;;;;;;;;;4968006;28;20228;-54
2023/10/03 04:35:13;;;;;;;535.40;242.40;;;;;;;;;;4968801;28;20225;-54
2023/10/03 04:37:42;;;;;;;521.93;230.63;;;;;;;;;;4961333;28;20220;-54
2023/10/03 04:40:28;;;;;;;508.17;228.10;;;;;;;;;;4960817;28;20217;-54
2023/10/03 04:42:55;;;;;;;509.53;227.13;;;;;;;;;;4970798;28;20428;-54
2023/10/03 04:45:22;;;;;;;531.20;230.63;;;;;;;;;;4961703;28;20169;-54
2023/10/03 04:47:48;;;;;;;464.60;203.47;;;;;;;;;;4968020;28;20229;-54
2023/10/03 04:50:18;;;;;;;527.67;239.37;;;;;;;;;;4971081;28;20308;-54
2023/10/03 04:52:50;;;;;;;472.53;203.80;;;;;;;;;;4963760;28;21006;-54
2023/10/03 04:55:19;;;;;;;544.47;243.43;;;;;;;;;;4957795;28;20713;-54
2023/10/03 04:57:46;;;;;;;568.07;261.53;;;;;;;;;;4961040;28;20288;-54
2023/10/03 05:00:15;;;;;;;542.70;242.23;;;;;;;;;;4953193;28;20612;-55
2023/10/03 05:02:42;;;;;;;481.80;213.40;;;;;;;;;;4966576;28;20217;-54
2023/10/03 05:05:10;;;;;;;546.70;254.20;;;;;;;;;;4961611;28;20221;-55
2023/10/03 05:07:36;;;;;;;494.50;241.10;;;;;;;;;;4938063;28;20566;-55
2023/10/03 05:10:03;;;;;;;469.50;208.37;;;;;;;;;;4947983;28;20611;-55
2023/10/03 05:12:31;;;;;;;520.30;232.37;;;;;;;;;;4971115;28;20779;-55
2023/10/03 05:36:22;;;;;;;501.77;220.23;;;;;;;;;;4932868;28;20221;-56
2023/10/03 05:38:48;;;;;;;553.63;263.13;;;;;;;;;;4949964;28;20307;-56
2023/10/03 05:41:23;;;;;;;596.23;274.83;;;;;;;;;;4951852;28;20906;-56
2023/10/03 05:43:49;;;;;;;519.73;235.63;;;;;;;;;;4956740;28;20251;-56
2023/10/03 05:46:15;;;;;;;543.57;244.53;;;;;;;;;;4950337;28;26376;-56
2023/10/03 05:48:43;;;;;;;485.17;208.93;;;;;;;;;;4970136;28;20292;-57
2023/10/03 05:51:09;;;;;;;503.93;219.20;;;;;;;;;;4957236;28;20221;-56
2023/10/03 05:53:35;;;;;;;491.33;217.70;;;;;;;;;;4969908;28;20232;-56
2023/10/03 05:56:01;;;;;;;498.87;215.13;;;;;;;;;;4977910;28;20542;-56
2023/10/03 05:58:27;;;;;;;483.27;217.83;;;;;;;;;;4960566;28;20279;-56
2023/10/03 06:00:53;;;;;;;505.83;238.07;;;;;;;;;;4940237;28;20581;-56
2023/10/03 06:03:20;;;;;;;518.77;242.23;;;;;;;;;;4962089;28;20292;-57
2023/10/03 06:05:46;;;;;;;500.20;228.10;;;;;;;;;;4952636;28;20221;-57
2023/10/03 06:08:12;;;;;;;560.17;268.10;;;;;;;;;;4958811;28;20218;-57
2023/10/03 06:10:42;;;;;;;643.50;318.00;;;;;;;;;;4945855;28;20225;-55
2023/10/03 06:13:11;;;;;;;498.40;215.00;;;;;;;;;;4951743;28;20388;-56
2023/10/03 06:15:43;;;;;;;510.20;230.27;;;;;;;;;;4948813;28;20738;-58
2023/10/03 06:18:09;;;;;;;517.27;238.40;;;;;;;;;;4960364;28;20217;-57
2023/10/03 06:20:36;;;;;;;497.37;225.23;;;;;;;;;;4959184;28;20217;-56
2023/10/03 06:23:04;;;;;;;543.87;249.87;;;;;;;;;;4960894;28;20686;-56
2023/10/03 06:25:30;;;;;;;483.63;221.07;;;;;;;;;;4975252;28;20209;-56
2023/10/03 06:27:56;;;;;;;519.73;243.70;;;;;;;;;;4971833;28;20190;-56
2023/10/03 06:30:23;;;;;;;565.97;277.03;;;;;;;;;;4962011;28;20212;-56
2023/10/03 06:32:49;;;;;;;488.93;229.33;;;;;;;;;;4974815;28;20234;-56
2023/10/03 06:35:15;;;;;;;536.67;257.73;;;;;;;;;;4966276;28;20235;-56
2023/10/03 06:37:41;;;;;;;512.93;226.33;;;;;;;;;;4964316;28;20704;-56
2023/10/03 06:40:08;;;;;;;470.97;214.13;;;;;;;;;;4968501;28;20240;-56
2023/10/03 06:42:34;;;;;;;510.37;227.57;;;;;;;;;;4971109;28;20185;-57
2023/10/03 06:45:00;;;;;;;505.90;222.30;;;;;;;;;;4969413;28;20233;-56
2023/10/03 06:47:27;;;;;;;564.20;266.37;;;;;;;;;;4974826;28;20217;-56
2023/10/03 06:49:53;;;;;;;529.90;245.90;;;;;;;;;;4984611;28;20221;-57
2023/10/03 06:52:19;;;;;;;564.10;274.50;;;;;;;;;;4964875;28;20224;-56
2023/10/03 06:54:45;;;;;;;477.00;219.00;;;;;;;;;;4970061;28;20413;-57
2023/10/03 06:57:10;;;;;;;480.53;227.70;;;;;;;;;;4969908;28;20221;-57
2023/10/03 06:59:36;;;;;;;464.77;220.13;;;;;;;;;;4974267;28;20304;-57
2023/10/03 07:02:04;;;;;;;506.50;239.20;;;;;;;;;;4966034;28;20217;-57
2023/10/03 07:04:30;;;;;;;570.40;279.13;;;;;;;;;;4967945;28;20217;-57
2023/10/03 07:06:56;;;;;;;589.00;300.13;;;;;;;;;;4966928;28;20193;-57
2023/10/03 07:09:22;;;;;;;531.90;260.20;;;;;;;;;;4957934;28;20209;-57
2023/10/03 07:11:48;;;;;;;488.20;236.33;;;;;;;;;;4968984;28;20596;-57
2023/10/03 07:14:15;;;;;;;525.33;259.77;;;;;;;;;;4968673;28;20264;-57
2023/10/03 07:16:41;;;;;;;487.17;241.33;;;;;;;;;;4962294;28;20227;-56
2023/10/03 07:19:10;;;;;;;521.70;254.37;;;;;;;;;;4968566;28;20838;-56
2023/10/03 07:21:37;;;;;;;564.50;276.77;;;;;;;;;;4975124;28;20182;-56
2023/10/03 07:24:03;;;;;;;469.57;220.30;;;;;;;;;;4972907;28;20669;-56
2023/10/03 07:26:30;;;;;;;544.27;265.47;;;;;;;;;;4966005;28;20233;-55
2023/10/03 07:29:00;;;;;;;531.57;268.87;;;;;;;;;;4957293;28;20233;-54
2023/10/03 07:31:27;;;;;;;521.70;265.30;;;;;;;;;;4969764;28;20296;-54
2023/10/03 07:33:54;;;;;;;485.80;239.87;;;;;;;;;;4972602;28;20186;-53
2023/10/03 07:36:20;;;;;;;526.93;259.27;;;;;;;;;;4970430;28;20252;-54
2023/10/03 07:38:46;;;;;;;497.50;249.13;;;;;;;;;;4968548;28;20253;-54
2023/10/03 07:41:17;;;;;;;520.57;252.80;;;;;;;;;;4966911;28;20312;-55
2023/10/03 07:43:52;;;;;;;519.83;254.03;;;;;;;;;;4974599;28;20209;-55
2023/10/03 07:46:21;;;;;;;535.07;273.83;;;;;;;;;;4965358;28;20576;-54
2023/10/03 07:48:49;;;;;;;472.37;243.50;;;;;;;;;;4977774;28;20214;-55
2023/10/03 07:51:15;;;;;;;520.20;275.83;;;;;;;;;;4969671;28;20228;-54
2023/10/03 07:53:41;;;;;;;500.27;254.27;;;;;;;;;;4970694;28;20209;-54
2023/10/03 07:56:16;;;;;;;520.37;265.10;;;;;;;;;;4971614;28;20217;-55
2023/10/03 07:58:42;;;;;;;544.43;280.53;;;;;;;;;;4971547;28;20667;-55
2023/10/03 08:01:08;;;;;;;531.93;265.47;;;;;;;;;;4966612;28;20186;-55
2023/10/03 08:03:34;;;;;;;495.97;250.77;;;;;;;;;;4966649;28;20778;-54
2023/10/03 08:06:00;;;;;;;504.97;257.20;;;;;;;;;;4963470;28;20233;-54
2023/10/03 08:08:26;;;;;;;531.50;280.13;;;;;;;;;;4973209;28;20440;-54
2023/10/03 08:10:52;;;;;;;515.47;268.47;;;;;;;;;;4977467;28;20596;-54
2023/10/03 08:13:18;;;;;;;544.17;291.37;;;;;;;;;;4966536;28;20232;-54
2023/10/03 08:15:44;;;;;;;490.17;259.53;;;;;;;;;;4971857;28;20603;-54
2023/10/03 08:18:17;;;;;;;486.47;260.77;;;;;;;;;;4964136;28;20312;-54
2023/10/03 08:20:43;;;;;;;497.33;275.43;;;;;;;;;;4970061;28;20220;-56
2023/10/03 08:23:09;;;;;;;534.90;292.33;;;;;;;;;;4971513;28;20221;-56
2023/10/03 08:25:35;;;;;;;493.90;267.67;;;;;;;;;;4962772;28;20919;-56
2023/10/03 08:28:08;;;;;;;535.57;294.47;;;;;;;;;;4967619;28;20599;-56
2023/10/03 08:30:35;;;;;;;478.90;259.87;;;;;;;;;;4969197;28;20205;-57
2023/10/03 08:33:04;;;;;;;497.63;269.30;;;;;;;;;;4982659;28;20259;-57
2023/10/03 08:35:40;;;;;;;558.80;298.70;;;;;;;;;;4966332;28;20221;-57
2023/10/03 08:38:09;;;;;;;487.10;258.87;;;;;;;;;;4971986;28;20700;-57
2023/10/03 08:40:39;;;;;;;497.50;264.90;;;;;;;;;;4977753;28;20235;-57
2023/10/03 08:43:09;;;;;;;536.10;297.73;;;;;;;;;;4963332;28;20576;-57
2023/10/03 08:45:39;;;;;;;497.27;272.47;;;;;;;;;;4969635;28;20220;-57
2023/10/03 08:48:08;;;;;;;554.87;304.77;;;;;;;;;;4967435;28;20218;-56
2023/10/03 08:50:39;;;;;;;527.67;296.90;;;;;;;;;;4966066;28;20600;-56
2023/10/03 08:53:26;;;;;;;567.07;303.90;;;;;;;;;;4955027;28;20363;-57
2023/10/03 08:55:57;;;;;;;527.47;280.10;;;;;;;;;;4960395;28;20695;-54
2023/10/03 08:58:25;;;;;;;471.47;260.60;;;;;;;;;;5000738;28;20227;-53
2023/10/03 09:00:58;;;;;;;469.93;263.33;;;;;;;;;;5006619;28;20185;-52
2023/10/03 09:03:25;;;;;;;436.77;248.17;;;;;;;;;;5006032;28;20163;-52
2023/10/03 09:05:51;;;;;;;469.00;264.30;;;;;;;;;;5006438;28;20698;-53
2023/10/03 09:08:17;;;;;;;447.07;256.57;;;;;;;;;;5005945;28;20224;-53
2023/10/03 09:10:51;;;;;;;499.30;278.40;;;;;;;;;;5006162;28;20225;-52
2023/10/03 09:13:23;;;;;;;556.77;302.57;;;;;;;;;;4963421;28;20258;-55
2023/10/03 09:15:49;;;;;;;493.23;275.97;;;;;;;;;;4967101;28;20256;-52
2023/10/03 09:18:21;;;;;;;383.47;235.23;;;;;;;;;;4983815;28;20224;-50
2023/10/03 09:20:49;;;;;;;365.73;231.33;;;;;;;;;;4990348;28;20299;-51
2023/10/03 09:23:17;;;;;;;374.60;238.43;;;;;;;;;;4994386;28;20248;-52
2023/10/03 09:25:48;;;;;;;373.23;243.93;;;;;;;;;;4985174;28;20220;-51
2023/10/03 09:28:16;;;;;;;376.77;244.93;;;;;;;;;;4987175;28;20216;-52
2023/10/03 09:30:42;;;;;;;383.93;252.83;;;;;;;;;;4991262;28;20200;-52
2023/10/03 09:33:09;;;;;;;374.33;245.00;;;;;;;;;;4986790;28;20271;-52
2023/10/03 09:35:39;;;;;;;379.87;247.90;;;;;;;;;;4985785;28;20591;-52
2023/10/03 09:38:08;;;;;;;382.87;251.50;;;;;;;;;;4988486;28;20220;-52
2023/10/03 09:40:51;;;;;;;389.57;264.63;;;;;;;;;;4987146;28;20220;-51
2023/10/03 09:43:19;;;;;;;376.30;256.53;;;;;;;;;;4991161;28;20216;-52
2023/10/03 09:45:47;;;;;;;372.50;258.43;;;;;;;;;;4990304;28;20711;-52
2023/10/03 09:48:14;;;;;;;378.50;271.47;;;;;;;;;;4992066;28;20703;-52
2023/10/03 09:50:53;;;;;;;390.23;274.83;;;;;;;;;;4985972;28;20670;-52
2023/10/03 09:53:19;;;;;;;493.47;308.47;;;;;;;;;;4982809;28;20217;-51
2023/10/03 09:55:47;;;;;;;490.40;305.33;;;;;;;;;;4983584;28;20280;-52
2023/10/03 09:58:24;;;;;;;469.57;294.20;;;;;;;;;;4984288;28;20290;-51
2023/10/03 10:00:52;;;;;;;486.20;304.17;;;;;;;;;;4982273;28;20683;-52
2023/10/03 10:03:19;;;;;;;478.13;297.40;;;;;;;;;;4992549;28;20188;-52
2023/10/03 10:06:14;;;;;;;505.13;315.17;;;;;;;;;;4987271;28;20255;-51
2023/10/03 10:08:58;;;;;;;491.93;306.63;;;;;;;;;;4960624;28;20299;-51
2023/10/03 10:11:27;;;;;;;503.33;314.60;;;;;;;;;;4983947;28;20217;-51
2023/10/03 10:14:02;;;;;;;468.23;306.07;;;;;;;;;;4989821;28;20221;-52
2023/10/03 10:16:28;;;;;;;508.97;322.27;;;;;;;;;;4990508;28;20213;-53
2023/10/03 10:18:55;;;;;;;461.50;307.17;;;;;;;;;;4994321;28;20202;-53
2023/10/03 10:21:21;;;;;;;488.40;327.53;;;;;;;;;;4989772;28;20305;-52
2023/10/03 10:24:06;;;;;;;449.80;299.03;;;;;;;;;;4995863;28;20220;-52
2023/10/03 10:26:34;;;;;;;484.70;322.43;;;;;;;;;;4992322;28;20244;-52
2023/10/03 10:29:09;;;;;;;461.77;308.17;;;;;;;;;;4990316;28;20721;-52
2023/10/03 10:31:38;;;;;;;470.53;312.90;;;;;;;;;;4990030;28;20267;-52
2023/10/03 10:34:22;;;;;;;450.43;307.67;;;;;;;;;;4992463;28;20177;-52
2023/10/03 10:37:02;;;;;;;453.97;309.67;;;;;;;;;;4990996;28;20257;-52
2023/10/03 10:39:47;;;;;;;471.67;311.67;;;;;;;;;;4992933;28;20216;-52
2023/10/03 10:42:14;;;;;;;442.90;301.40;;;;;;;;;;4994681;28;20775;-51
2023/10/03 10:44:59;;;;;;;492.00;324.17;;;;;;;;;;4995952;28;20297;-52
2023/10/03 10:47:27;;;;;;;495.57;331.27;;;;;;;;;;4998209;28;20324;-52
2023/10/03 10:50:00;;;;;;;485.03;319.33;;;;;;;;;;4988702;28;20228;-52
2023/10/03 10:52:28;;;;;;;479.80;319.53;;;;;;;;;;4989389;28;20236;-51
2023/10/03 10:54:56;;;;;;;465.67;314.13;;;;;;;;;;4998166;28;20227;-52
2023/10/03 10:57:26;;;;;;;457.70;310.53;;;;;;;;;;4997187;28;20169;-53
2023/10/03 10:59:53;;;;;;;456.87;314.40;;;;;;;;;;4997586;28;20210;-53
2023/10/03 11:02:21;;;;;;;502.43;331.83;;;;;;;;;;4991389;28;20751;-51
2023/10/03 11:04:58;;;;;;;455.10;312.97;;;;;;;;;;4995988;28;20217;-51
2023/10/03 11:07:26;;;;;;;465.87;317.10;;;;;;;;;;4992518;28;20201;-51
2023/10/03 11:09:54;;;;;;;440.90;306.90;;;;;;;;;;4999814;28;20196;-52
2023/10/03 11:12:26;;;;;;;503.93;337.67;;;;;;;;;;4988872;28;20181;-51
2023/10/03 11:14:56;;;;;;;453.77;314.60;;;;;;;;;;4988889;28;20315;-51
2023/10/03 11:17:22;;;;;;;467.00;328.27;;;;;;;;;;4996292;28;20304;-51
2023/10/03 11:19:49;;;;;;;467.87;316.37;;;;;;;;;;4997852;28;20212;-51
2023/10/03 11:22:17;;;;;;;485.97;327.07;;;;;;;;;;4993784;28;20235;-52
2023/10/03 11:24:43;;;;;;;510.60;337.57;;;;;;;;;;4994730;28;20632;-52
2023/10/03 11:27:09;;;;;;;495.87;331.87;;;;;;;;;;4981843;28;20225;-53
2023/10/03 11:29:46;;;;;;;513.80;338.30;;;;;;;;;;4985574;28;20430;-52
2023/10/03 11:32:32;;;;;;;492.77;344.47;;;;;;;;;;4984850;28;20217;-53
2023/10/03 11:34:58;;;;;;;502.67;335.23;;;;;;;;;;4990686;28;20652;-52
2023/10/03 11:37:30;;;;;;;497.10;340.13;;;;;;;;;;4988527;28;20272;-52
2023/10/03 11:40:06;;;;;;;489.37;346.23;;;;;;;;;;4987506;28;20245;-52
2023/10/03 11:42:32;;;;;;;495.17;346.47;;;;;;;;;;4987454;28;20193;-52
2023/10/03 11:44:58;;;;;;;530.30;357.80;;;;;;;;;;4985877;28;20233;-52
2023/10/03 11:47:25;;;;;;;484.17;341.23;;;;;;;;;;4989856;28;20706;-51
2023/10/03 11:49:51;;;;;;;495.73;346.70;;;;;;;;;;4995444;28;20699;-51
2023/10/03 11:52:18;;;;;;;487.20;348.00;;;;;;;;;;4986897;28;20424;-51
2023/10/03 11:54:45;;;;;;;463.30;337.27;;;;;;;;;;4989686;28;20653;-51
2023/10/03 11:57:11;;;;;;;485.80;337.00;;;;;;;;;;4992244;28;20383;-51
2023/10/03 11:59:37;;;;;;;498.23;343.93;;;;;;;;;;4986857;28;20595;-51
2023/10/03 12:02:03;;;;;;;493.07;345.37;;;;;;;;;;4986292;28;20209;-51
2023/10/03 12:04:31;;;;;;;489.83;353.33;;;;;;;;;;4986164;28;20221;-51
2023/10/03 12:06:57;;;;;;;496.27;349.40;;;;;;;;;;4987415;28;20186;-51
2023/10/03 12:09:23;;;;;;;470.97;332.53;;;;;;;;;;4995472;28;20200;-50
2023/10/03 12:11:49;;;;;;;463.00;332.20;;;;;;;;;;4986861;28;20328;-52
2023/10/03 12:14:15;;;;;;;465.53;329.03;;;;;;;;;;4990577;28;20251;-52
2023/10/03 12:16:42;;;;;;;483.57;343.60;;;;;;;;;;4991630;28;20216;-52
2023/10/03 12:19:09;;;;;;;486.93;345.93;;;;;;;;;;4995783;28;20196;-52
2023/10/03 12:21:35;;;;;;;487.20;347.07;;;;;;;;;;4995809;28;20188;-52
2023/10/03 12:24:01;;;;;;;467.30;338.10;;;;;;;;;;4994031;28;20718;-51
2023/10/03 12:26:27;;;;;;;476.23;348.60;;;;;;;;;;4993418;28;20235;-52
2023/10/03 12:28:53;;;;;;;473.03;340.50;;;;;;;;;;4986101;28;20600;-51
2023/10/03 12:31:26;;;;;;;488.13;341.53;;;;;;;;;;4987466;28;20213;-51
2023/10/03 12:33:52;;;;;;;488.60;340.50;;;;;;;;;;4992658;28;20181;-51
2023/10/03 12:36:18;;;;;;;493.63;338.97;;;;;;;;;;4994249;28;20378;-51
2023/10/03 12:38:44;;;;;;;500.33;341.20;;;;;;;;;;4989208;28;20221;-51
2023/10/03 12:41:10;;;;;;;491.87;343.13;;;;;;;;;;4988740;28;20217;-51
2023/10/03 12:43:46;;;;;;;504.73;348.17;;;;;;;;;;4989345;28;20728;-51
2023/10/03 12:46:13;;;;;;;479.27;345.80;;;;;;;;;;4988561;28;20213;-51
2023/10/03 12:48:39;;;;;;;472.37;342.00;;;;;;;;;;4987094;28;20209;-52
2023/10/03 12:51:05;;;;;;;473.60;338.93;;;;;;;;;;4998991;28;20217;-50
2023/10/03 12:53:36;;;;;;;491.80;341.97;;;;;;;;;;4994359;28;20220;-51
2023/10/03 12:56:08;;;;;;;488.87;340.93;;;;;;;;;;4985377;28;20263;-51
2023/10/03 12:58:35;;;;;;;481.13;327.63;;;;;;;;;;4997967;28;20221;-51
2023/10/03 13:01:01;;;;;;;477.33;335.57;;;;;;;;;;4995217;28;20201;-51
2023/10/03 13:03:29;;;;;;;460.30;324.90;;;;;;;;;;4973639;28;20539;-51
2023/10/03 13:05:58;;;;;;;474.53;327.70;;;;;;;;;;4979401;28;20218;-51
2023/10/03 13:08:26;;;;;;;485.43;334.33;;;;;;;;;;4988176;28;20231;-51
2023/10/03 13:11:00;;;;;;;483.10;325.40;;;;;;;;;;4998048;28;20213;-50
2023/10/03 13:13:26;;;;;;;471.90;324.43;;;;;;;;;;4991962;28;20248;-51
2023/10/03 13:15:54;;;;;;;475.17;326.67;;;;;;;;;;4992379;28;20201;-51
2023/10/03 13:18:21;;;;;;;484.63;329.83;;;;;;;;;;4988030;28;20267;-52
2023/10/03 13:20:47;;;;;;;476.37;329.97;;;;;;;;;;4987823;28;20225;-52
2023/10/03 13:23:12;;;;;;;458.93;322.87;;;;;;;;;;4988745;28;20863;-52
2023/10/03 13:25:39;;;;;;;474.53;325.70;;;;;;;;;;4990387;28;20672;-52
2023/10/03 13:28:10;;;;;;;480.33;326.20;;;;;;;;;;4991112;28;20186;-51
2023/10/03 13:30:36;;;;;;;482.00;324.97;;;;;;;;;;4990238;28;20243;-52
2023/10/03 13:33:02;;;;;;;480.30;321.67;;;;;;;;;;4995043;28;20224;-52
2023/10/03 13:35:30;;;;;;;475.47;317.57;;;;;;;;;;4989195;28;20225;-52
2023/10/03 13:37:56;;;;;;;491.40;331.03;;;;;;;;;;4992709;28;20224;-51
2023/10/03 13:40:23;;;;;;;484.27;325.20;;;;;;;;;;4992881;28;20224;-50
2023/10/03 13:42:49;;;;;;;492.97;327.60;;;;;;;;;;4986649;28;20678;-51
2023/10/03 13:45:15;;;;;;;494.67;330.93;;;;;;;;;;4987089;28;20232;-51
2023/10/03 13:47:42;;;;;;;480.40;314.07;;;;;;;;;;4992540;28;20765;-50
2023/10/03 13:50:12;;;;;;;480.73;329.80;;;;;;;;;;4996778;28;20286;-51
2023/10/03 13:52:38;;;;;;;481.07;318.17;;;;;;;;;;4991946;28;20252;-51
2023/10/03 13:55:07;;;;;;;478.73;320.17;;;;;;;;;;4992282;28;20283;-50
2023/10/03 13:57:46;;;;;;;471.83;309.80;;;;;;;;;;4995380;28;20181;-51
2023/10/03 14:00:12;;;;;;;489.50;316.10;;;;;;;;;;4998209;28;20226;-51
2023/10/03 14:02:38;;;;;;;492.47;321.07;;;;;;;;;;4992918;28;20576;-50
2023/10/03 14:05:04;;;;;;;472.60;305.70;;;;;;;;;;5000243;28;20698;-53
2023/10/03 14:07:31;;;;;;;467.37;294.77;;;;;;;;;;4994139;28;20216;-50
2023/10/03 14:09:57;;;;;;;455.07;296.33;;;;;;;;;;4995245;28;20575;-51
2023/10/03 14:12:23;;;;;;;464.60;300.17;;;;;;;;;;4995755;28;20199;-51
2023/10/03 14:14:50;;;;;;;470.53;295.23;;;;;;;;;;4993767;28;20232;-51
2023/10/03 14:17:16;;;;;;;477.77;300.83;;;;;;;;;;5000392;28;20231;-50
2023/10/03 14:19:42;;;;;;;469.20;303.70;;;;;;;;;;4992160;28;20316;-50
2023/10/03 14:22:08;;;;;;;466.00;290.93;;;;;;;;;;4988467;28;20917;-51
2023/10/03 14:24:34;;;;;;;478.07;301.73;;;;;;;;;;4975630;28;20268;-51
2023/10/03 14:26:59;;;;;;;471.60;294.30;;;;;;;;;;4994223;28;20271;-51
2023/10/03 14:29:26;;;;;;;493.53;303.60;;;;;;;;;;4989552;28;20226;-51
2023/10/03 14:31:52;;;;;;;491.20;305.23;;;;;;;;;;4993203;28;20244;-51
2023/10/03 14:34:18;;;;;;;493.27;302.27;;;;;;;;;;4997945;28;20263;-51
2023/10/03 14:36:45;;;;;;;480.80;298.30;;;;;;;;;;4993409;28;20660;-51
2023/10/03 14:39:12;;;;;;;484.63;303.90;;;;;;;;;;4999568;28;20229;-50
2023/10/03 14:41:38;;;;;;;480.50;297.43;;;;;;;;;;4992025;28;20832;-51
2023/10/03 14:44:05;;;;;;;463.30;290.03;;;;;;;;;;4991283;28;20312;-51
2023/10/03 14:46:31;;;;;;;466.57;296.67;;;;;;;;;;4987699;28;20221;-51
2023/10/03 14:48:57;;;;;;;460.57;294.73;;;;;;;;;;4992427;28;20205;-51
2023/10/03 14:51:25;;;;;;;480.40;301.00;;;;;;;;;;4996357;28;20259;-50
2023/10/03 14:53:50;;;;;;;483.10;306.43;;;;;;;;;;4991279;28;20784;-51
2023/10/03 14:56:17;;;;;;;493.73;309.30;;;;;;;;;;4988313;28;20315;-51
2023/10/03 14:58:43;;;;;;;479.00;301.10;;;;;;;;;;4989003;28;20225;-51
2023/10/03 15:01:12;;;;;;;473.37;294.13;;;;;;;;;;4976389;28;20563;-52
2023/10/03 15:03:38;;;;;;;470.27;298.90;;;;;;;;;;4991112;28;20282;-51
2023/10/03 15:06:04;;;;;;;459.10;288.37;;;;;;;;;;4988147;28;20226;-51
2023/10/03 15:08:30;;;;;;;467.27;286.90;;;;;;;;;;4992703;28;20216;-51
2023/10/03 15:11:03;;;;;;;472.73;297.90;;;;;;;;;;4992879;28;20522;-51
2023/10/03 15:13:29;;;;;;;491.23;300.13;;;;;;;;;;4992674;28;20222;-51
2023/10/03 15:15:56;;;;;;;485.80;296.60;;;;;;;;;;4995398;28;20197;-51
2023/10/03 15:18:22;;;;;;;490.97;295.50;;;;;;;;;;4995527;28;20212;-51
2023/10/03 15:20:48;;;;;;;487.73;290.90;;;;;;;;;;4993829;28;20738;-51
2023/10/03 15:23:13;;;;;;;474.50;285.63;;;;;;;;;;4994921;28;20209;-51
2023/10/03 15:25:41;;;;;;;491.47;289.37;;;;;;;;;;4996249;28;20212;-51
2023/10/03 15:28:07;;;;;;;477.77;281.33;;;;;;;;;;4994273;28;20262;-51
2023/10/03 15:30:33;;;;;;;475.43;277.47;;;;;;;;;;4993072;28;20199;-51
2023/10/03 15:33:00;;;;;;;483.77;280.80;;;;;;;;;;4989678;28;20233;-51
2023/10/03 15:35:26;;;;;;;473.40;277.87;;;;;;;;;;4995177;28;20221;-51
2023/10/03 15:37:51;;;;;;;484.50;283.97;;;;;;;;;;4989300;28;20219;-51
2023/10/03 15:40:19;;;;;;;480.53;285.73;;;;;;;;;;4985093;28;20221;-51
2023/10/03 15:42:46;;;;;;;481.47;281.53;;;;;;;;;;4991368;28;20192;-51
2023/10/03 15:45:12;;;;;;;484.03;286.20;;;;;;;;;;4989836;28;20217;-51
2023/10/03 15:47:38;;;;;;;474.30;281.10;;;;;;;;;;4996464;28;20359;-51
2023/10/03 15:50:04;;;;;;;483.13;282.27;;;;;;;;;;4989778;28;20231;-51
2023/10/03 15:52:30;;;;;;;472.67;278.30;;;;;;;;;;4990031;28;20606;-51
2023/10/03 15:54:58;;;;;;;474.77;274.13;;;;;;;;;;4989749;28;20262;-51
2023/10/03 15:57:24;;;;;;;484.63;290.67;;;;;;;;;;4993181;28;20276;-51
2023/10/03 15:59:50;;;;;;;485.60;297.30;;;;;;;;;;4988811;28;20584;-51
2023/10/03 16:02:16;;;;;;;486.80;281.07;;;;;;;;;;4976843;28;20214;-51